Thorshavn, Denmark
Current Conditions -  °F | °C
As of 10:20 AM on Sunday 26 Oct 2014 (Local Time) from EKVG Reporting Station
Broken Clouds Broken Clouds  
Wind Chill: 36°   Ceiling: 1500
Heat Index: 45°   Visibility: 6mi
Dew Point: 39°   Wind: 23mph
Humidity: 81%   Direction: 270°W
Pressure: 28.82"   Gusts: 49mph
Location:  62.02°N, 6.77°W
Report Text: EKVG 260820Z AUTO 27020G43KT 220V310 9999NDV BKN015///BKN051/// 07/04 Q0976
Loading
Personal Weather Stations






























Interactive Weather Map
Tropical Storm Tracking
New forecast layout! Learn more

10-Day Weather Forecast

Advertisements
Track Severe Weather on mobile